Time;durP1;ratioP1;P1;durP2;ratioP2;P2;SDS_P1;SDS_P2;PMS_P1;PMS_P2;Temp;Humidity;BMP_temperature;BMP_pressure;BME280_temperature;BME280_humidity;BME280_pressure;Samples;Min_cycle;Max_cycle;Signal;HPM_P1;HPM_P2
2023/12/12 00:02:26;;;;;;;116.40;57.47;;;;;;;5.02;85.87;100991.72;4933003;28;20108;-79
2023/12/12 00:04:53;;;;;;;123.07;59.10;;;;;;;5.14;86.25;100972.53;4978461;28;20042;-79
2023/12/12 00:07:25;;;;;;;116.95;57.67;;;;;;;5.09;85.35;100990.41;4954206;28;20538;-81
2023/12/12 00:09:53;;;;;;;120.40;55.47;;;;;;;5.08;85.67;100996.63;4972206;28;20077;-81
2023/12/12 00:12:20;;;;;;;126.68;58.30;;;;;;;5.05;85.31;100995.03;4977318;28;20046;-80
2023/12/12 00:14:48;;;;;;;131.10;58.85;;;;;;;4.96;85.51;100973.66;4971548;28;20049;-80
2023/12/12 00:17:14;;;;;;;120.28;58.08;;;;;;;5.10;85.60;100989.47;4977923;28;20076;-79
2023/12/12 00:19:45;;;;;;;115.47;57.72;;;;;;;5.02;85.55;100995.19;4975855;28;20058;-78
2023/12/12 00:22:11;;;;;;;108.30;55.72;;;;;;;5.05;85.75;101021.34;4954940;28;20139;-79
2023/12/12 00:24:38;;;;;;;123.10;57.88;;;;;;;5.06;85.42;101022.19;4962894;28;20050;-80
2023/12/12 00:27:05;;;;;;;115.95;57.58;;;;;;;4.63;85.31;100975.53;4970118;28;20133;-78
2023/12/12 00:29:36;;;;;;;115.80;57.65;;;;;;;4.60;85.56;100977.50;4971015;28;20402;-80
2023/12/12 00:32:03;;;;;;;120.30;55.25;;;;;;;4.81;86.04;101010.47;4970867;28;20045;-80
2023/12/12 00:34:30;;;;;;;124.82;58.60;;;;;;;4.42;85.75;100900.56;4977756;28;20080;-79
2023/12/12 00:36:57;;;;;;;119.70;55.22;;;;;;;5.04;85.43;101014.34;4956722;28;20049;-79
2023/12/12 00:39:32;;;;;;;129.40;57.90;;;;;;;5.01;86.01;101005.81;4930421;28;20561;-79
2023/12/12 00:41:58;;;;;;;111.18;55.92;;;;;;;5.08;85.98;100994.00;4971194;28;20057;-80
2023/12/12 00:44:27;;;;;;;112.63;54.22;;;;;;;5.13;85.88;100989.28;4978436;28;20500;-81
2023/12/12 00:46:54;;;;;;;125.45;55.72;;;;;;;5.18;85.72;100984.59;4982455;28;20415;-80
2023/12/12 00:49:22;;;;;;;108.70;54.08;;;;;;;5.13;85.63;100955.91;4964017;28;20471;-79
2023/12/12 00:51:49;;;;;;;120.47;57.78;;;;;;;5.08;84.87;100957.16;4961927;28;20073;-78
2023/12/12 00:54:16;;;;;;;109.15;53.95;;;;;;;4.89;84.06;100926.66;4971287;28;20042;-78
2023/12/12 00:56:44;;;;;;;108.85;56.72;;;;;;;5.11;84.02;100952.53;4990221;28;20045;-79
2023/12/12 00:59:14;;;;;;;107.20;53.13;;;;;;;5.19;83.67;100957.31;4952146;28;20046;-80
2023/12/12 01:01:41;;;;;;;104.45;54.35;;;;;;;5.20;83.63;100977.47;4979461;28;20457;-79
2023/12/12 01:04:08;;;;;;;103.65;55.28;;;;;;;4.98;83.54;100972.63;4967680;28;20419;-77
2023/12/12 01:06:35;;;;;;;104.68;53.65;;;;;;;4.85;83.16;100954.06;4965048;28;20152;-79
2023/12/12 01:09:02;;;;;;;107.10;53.20;;;;;;;4.98;83.46;100977.06;4976234;28;20544;-80
2023/12/12 01:11:32;;;;;;;98.40;54.67;;;;;;;4.97;83.67;100975.34;4975935;28;20100;-79
2023/12/12 01:14:00;;;;;;;103.85;53.97;;;;;;;5.01;83.01;100976.88;4972595;28;20058;-80
2023/12/12 01:16:30;;;;;;;93.15;53.58;;;;;;;5.01;83.03;100974.25;4983167;28;20046;-80
2023/12/12 01:18:57;;;;;;;96.63;52.75;;;;;;;4.91;82.09;100960.78;4976098;28;20064;-79
2023/12/12 01:21:24;;;;;;;96.38;53.17;;;;;;;5.04;82.48;100950.38;4958157;28;20407;-81
2023/12/12 01:23:59;;;;;;;91.03;52.15;;;;;;;4.84;81.93;100949.78;4936821;28;20050;-80
2023/12/12 01:26:26;;;;;;;96.63;50.90;;;;;;;4.79;82.23;100962.34;4950184;28;20050;-80
2023/12/12 01:28:58;;;;;;;84.65;48.72;;;;;;;4.71;82.52;100951.44;4931686;28;20171;-80
2023/12/12 01:31:30;;;;;;;87.82;49.33;;;;;;;4.70;82.67;100966.34;4929913;28;20640;-79
2023/12/12 01:34:10;;;;;;;102.15;51.58;;;;;;;4.77;82.67;100980.00;4942279;28;20037;-80
2023/12/12 01:36:39;;;;;;;98.25;50.40;;;;;;;4.71;82.39;100969.84;4968849;28;20127;-79
2023/12/12 01:39:06;;;;;;;98.05;48.95;;;;;;;4.84;82.04;100981.34;4968979;28;20057;-78
2023/12/12 01:41:37;;;;;;;80.82;48.00;;;;;;;4.78;81.82;100955.41;4937893;28;20050;-80
2023/12/12 01:44:04;;;;;;;89.47;47.67;;;;;;;4.92;82.34;100942.25;4940774;28;20078;-79
2023/12/12 01:46:34;;;;;;;94.20;49.20;;;;;;;4.90;81.58;100933.63;4933359;28;20140;-81
2023/12/12 01:49:01;;;;;;;91.13;48.78;;;;;;;4.86;81.65;100926.84;4946943;28;20088;-79
2023/12/12 01:51:30;;;;;;;78.53;44.72;;;;;;;4.92;81.72;100941.41;4961631;28;20054;-80
2023/12/12 01:54:00;;;;;;;88.03;47.17;;;;;;;4.63;81.77;100904.53;4928561;28;20078;-79
2023/12/12 01:56:28;;;;;;;82.78;46.42;;;;;;;4.82;82.02;100938.47;4933324;28;20456;-81
2023/12/12 01:59:04;;;;;;;84.55;47.10;;;;;;;4.69;81.38;100919.97;4932236;28;20085;-81
2023/12/12 02:01:32;;;;;;;82.07;46.35;;;;;;;4.83;81.73;100947.22;4942332;28;20261;-80
2023/12/12 02:04:01;;;;;;;75.22;43.42;;;;;;;4.72;81.89;100939.97;4992609;28;20057;-80
2023/12/12 02:06:28;;;;;;;94.57;46.92;;;;;;;4.62;82.37;100923.06;4969587;28;20506;-79
2023/12/12 02:08:59;;;;;;;87.25;46.25;;;;;;;4.55;81.82;100903.31;4956762;28;20160;-80
2023/12/12 02:11:26;;;;;;;80.10;44.55;;;;;;;4.49;81.95;100896.59;4967921;28;20053;-79
2023/12/12 02:13:55;;;;;;;90.00;45.92;;;;;;;4.60;82.05;100945.97;4963967;28;20057;-80
2023/12/12 02:16:22;;;;;;;79.13;43.95;;;;;;;4.29;82.31;100895.16;4958128;28;20053;-80
2023/12/12 02:18:53;;;;;;;75.10;44.50;;;;;;;4.46;82.36;100907.31;4953247;28;20088;-80
2023/12/12 02:21:20;;;;;;;81.55;44.20;;;;;;;4.43;82.80;100932.00;4951735;28;20542;-80
2023/12/12 02:23:53;;;;;;;72.70;42.10;;;;;;;4.26;83.02;100916.38;4950116;28;20042;-78
2023/12/12 02:26:21;;;;;;;75.68;43.38;;;;;;;4.46;83.31;100959.91;4956764;28;20050;-81
2023/12/12 02:28:50;;;;;;;80.43;44.47;;;;;;;4.47;82.81;100948.47;4967177;28;20474;-81
2023/12/12 02:31:17;;;;;;;71.72;41.70;;;;;;;4.49;82.95;100944.81;4958630;28;20047;-82
2023/12/12 02:33:46;;;;;;;74.05;42.45;;;;;;;4.54;82.70;100951.56;4931983;28;20049;-81
2023/12/12 02:36:15;;;;;;;74.30;44.13;;;;;;;4.43;82.28;100937.25;4945568;28;20351;-80
2023/12/12 02:38:42;;;;;;;69.38;42.55;;;;;;;4.23;82.93;100898.16;4957685;28;20056;-80
2023/12/12 02:41:08;;;;;;;72.50;43.20;;;;;;;4.33;82.93;100915.06;4924767;28;20046;-80
2023/12/12 02:43:37;;;;;;;70.82;42.50;;;;;;;4.36;82.90;100917.50;4959496;28;20073;-80
2023/12/12 02:46:04;;;;;;;76.68;44.63;;;;;;;4.50;82.67;100928.09;4949724;28;20046;-79
2023/12/12 02:48:32;;;;;;;75.28;44.08;;;;;;;4.55;82.61;100937.50;4947523;28;20054;-80
2023/12/12 02:50:59;;;;;;;75.95;43.60;;;;;;;4.55;82.59;100922.56;4954970;28;20061;-79
2023/12/12 02:53:26;;;;;;;74.38;43.67;;;;;;;4.55;82.61;100913.81;4948698;28;20488;-81
2023/12/12 02:55:52;;;;;;;77.60;46.40;;;;;;;4.55;82.30;100900.69;4962423;28;20144;-81
2023/12/12 02:58:19;;;;;;;88.00;47.97;;;;;;;4.59;81.84;100917.97;4953796;28;20061;-80
2023/12/12 03:00:52;;;;;;;78.72;45.55;;;;;;;4.30;81.61;100870.59;4957330;28;20276;-82
2023/12/12 03:03:19;;;;;;;84.03;46.65;;;;;;;4.48;82.52;100913.34;4957697;28;20393;-81
2023/12/12 03:05:45;;;;;;;90.20;49.28;;;;;;;4.30;82.65;100881.09;4966073;28;20425;-80
2023/12/12 03:08:12;;;;;;;87.43;48.90;;;;;;;4.28;82.71;100885.59;4953090;28;20131;-81
2023/12/12 03:10:39;;;;;;;91.18;49.45;;;;;;;4.47;82.67;100906.41;4963764;28;20050;-80
2023/12/12 03:13:09;;;;;;;78.05;44.92;;;;;;;4.29;82.64;100851.31;4974451;28;20054;-82
2023/12/12 03:15:38;;;;;;;81.85;48.13;;;;;;;4.52;82.79;100883.31;4978129;28;20054;-82
2023/12/12 03:18:12;;;;;;;83.60;46.55;;;;;;;4.53;82.23;100889.41;4945996;28;20484;-79
2023/12/12 03:20:39;;;;;;;85.60;48.33;;;;;;;4.56;82.79;100908.47;4974699;28;20064;-81
2023/12/12 03:23:05;;;;;;;74.82;44.50;;;;;;;4.37;82.72;100885.06;4974574;28;20412;-80
2023/12/12 03:25:34;;;;;;;77.30;45.33;;;;;;;4.53;83.00;100910.44;4959615;28;20045;-81
2023/12/12 03:28:02;;;;;;;84.45;45.28;;;;;;;4.48;82.62;100916.81;4983087;28;20155;-81
2023/12/12 03:30:31;;;;;;;75.50;44.75;;;;;;;4.40;82.60;100921.66;4969157;28;20057;-81
2023/12/12 03:32:58;;;;;;;83.05;46.47;;;;;;;4.56;83.61;100950.53;4983734;28;20050;-80
2023/12/12 03:35:25;;;;;;;77.15;45.20;;;;;;;4.57;83.51;100951.41;4977973;28;20060;-81
2023/12/12 03:37:52;;;;;;;82.50;46.78;;;;;;;4.16;83.66;100888.94;4960917;28;20053;-80
2023/12/12 03:40:18;;;;;;;80.50;44.08;;;;;;;4.45;83.41;100943.28;4958539;28;20452;-81
2023/12/12 03:42:45;;;;;;;80.43;44.47;;;;;;;4.33;83.52;100907.19;4968173;28;20057;-80
2023/12/12 03:45:12;;;;;;;78.90;45.85;;;;;;;4.52;83.70;100942.94;4975815;28;20057;-81
2023/12/12 03:47:42;;;;;;;80.03;45.70;;;;;;;4.61;83.82;100952.91;4962288;28;20042;-81
2023/12/12 03:50:09;;;;;;;74.55;43.55;;;;;;;4.42;84.11;100927.69;4967372;28;20416;-81
2023/12/12 03:52:38;;;;;;;87.05;46.42;;;;;;;4.65;84.37;100951.78;4979477;28;20096;-79
2023/12/12 03:55:08;;;;;;;85.53;44.58;;;;;;;4.42;84.21;100922.44;4976996;28;20076;-80
2023/12/12 03:57:38;;;;;;;81.05;45.90;;;;;;;4.58;83.89;100932.88;4981777;28;20052;-81
2023/12/12 04:00:07;;;;;;;88.65;46.95;;;;;;;4.77;84.08;100969.47;4980939;28;20464;-80
2023/12/12 04:02:34;;;;;;;76.60;44.40;;;;;;;4.71;84.69;100961.97;4968235;28;20058;-82
2023/12/12 04:05:00;;;;;;;82.07;44.70;;;;;;;4.62;84.57;100936.19;4966489;28;20139;-80
2023/12/12 04:07:27;;;;;;;83.25;46.20;;;;;;;4.86;84.63;100963.69;4950401;28;20042;-81
2023/12/12 04:09:55;;;;;;;83.45;46.72;;;;;;;4.63;84.27;100932.63;4984256;28;20048;-80
2023/12/12 04:12:21;;;;;;;82.93;44.58;;;;;;;4.60;84.72;100927.56;4977754;28;20049;-80
2023/12/12 04:14:48;;;;;;;86.80;44.75;;;;;;;4.96;84.17;100978.94;4960008;28;20041;-79
2023/12/12 04:17:21;;;;;;;89.00;49.55;;;;;;;4.81;83.83;100959.63;4972225;28;20141;-80
2023/12/12 04:19:49;;;;;;;84.68;43.50;;;;;;;4.97;83.82;100976.19;4981062;28;20546;-79
2023/12/12 04:22:16;;;;;;;88.38;48.67;;;;;;;4.52;82.71;100912.22;4974621;28;20065;-80
2023/12/12 04:24:51;;;;;;;95.00;48.20;;;;;;;4.84;83.25;100957.66;4985225;28;20054;-81
2023/12/12 04:27:21;;;;;;;86.45;47.55;;;;;;;4.98;83.12;100992.84;4967955;28;20389;-78
2023/12/12 04:29:48;;;;;;;81.05;46.45;;;;;;;4.86;83.84;100971.56;4973297;28;20504;-80
2023/12/12 04:32:15;;;;;;;90.43;46.22;;;;;;;4.85;83.54;100950.59;4980010;28;20529;-82
2023/12/12 04:34:42;;;;;;;78.90;44.33;;;;;;;5.01;83.99;100974.25;4981798;28;20377;-82
2023/12/12 04:37:09;;;;;;;79.28;43.90;;;;;;;5.13;83.95;100990.13;4969795;28;20053;-81
2023/12/12 04:39:36;;;;;;;82.90;45.13;;;;;;;5.14;84.14;100973.38;4978796;28;20052;-80
2023/12/12 04:42:06;;;;;;;79.53;44.90;;;;;;;5.19;84.18;100954.69;4968774;28;20594;-81
2023/12/12 04:44:35;;;;;;;83.63;43.88;;;;;;;5.15;83.84;100963.72;4981354;28;20054;-81
2023/12/12 04:47:02;;;;;;;76.22;41.80;;;;;;;5.14;83.64;100967.28;4984363;28;20147;-81
2023/12/12 04:49:29;;;;;;;83.63;44.85;;;;;;;5.19;83.62;100972.28;4978964;28;20115;-81
2023/12/12 04:52:04;;;;;;;78.00;43.08;;;;;;;5.20;84.00;100984.50;4979265;28;20476;-81
2023/12/12 04:54:31;;;;;;;79.70;41.97;;;;;;;4.60;83.67;100899.47;4976247;28;20393;-80
2023/12/12 04:57:02;;;;;;;73.40;42.40;;;;;;;5.22;83.90;100995.78;4991194;28;20053;-81
2023/12/12 04:59:29;;;;;;;84.93;42.67;;;;;;;5.14;84.39;100980.44;4996512;28;20104;-80
2023/12/12 05:01:56;;;;;;;76.63;42.83;;;;;;;5.08;84.10;100973.78;5008102;28;20155;-78
2023/12/12 05:04:29;;;;;;;82.72;42.50;;;;;;;5.07;84.16;100971.22;4995797;28;20128;-80
2023/12/12 05:06:56;;;;;;;78.13;40.38;;;;;;;5.01;83.76;100974.25;5003856;28;20680;-80
2023/12/12 05:09:23;;;;;;;72.03;42.83;;;;;;;5.16;83.97;101004.88;4985689;28;20038;-80
2023/12/12 05:11:55;;;;;;;73.88;42.63;;;;;;;4.89;83.76;100968.75;4962566;28;20050;-80
2023/12/12 05:14:25;;;;;;;76.15;41.35;;;;;;;5.08;84.38;101009.78;4949697;28;20054;-79
2023/12/12 05:16:52;;;;;;;82.10;43.50;;;;;;;5.22;84.33;101012.44;4954439;28;20050;-80
2023/12/12 05:19:32;;;;;;;80.80;45.17;;;;;;;5.35;83.76;101034.44;4964274;28;20422;-80
2023/12/12 05:21:59;;;;;;;91.93;48.38;;;;;;;5.16;83.91;101007.53;4953718;28;20050;-79
2023/12/12 05:24:26;;;;;;;87.60;46.47;;;;;;;5.26;83.61;101018.34;4967001;28;20483;-81
2023/12/12 05:26:53;;;;;;;87.85;47.92;;;;;;;5.22;83.95;101028.22;4977364;28;20046;-79
2023/12/12 05:29:20;;;;;;;95.57;46.25;;;;;;;5.09;84.00;101021.97;4975616;28;20503;-82
2023/12/12 05:31:47;;;;;;;80.43;44.20;;;;;;;5.21;84.19;101052.84;4977007;28;20057;-82
2023/12/12 05:34:14;;;;;;;81.32;42.30;;;;;;;5.25;84.26;101059.63;4963057;28;20562;-81
2023/12/12 05:36:41;;;;;;;89.80;45.50;;;;;;;5.26;83.99;101050.78;4967427;28;20548;-79
2023/12/12 05:39:09;;;;;;;81.88;41.13;;;;;;;4.95;84.14;101008.78;4968726;28;20315;-81
2023/12/12 05:41:36;;;;;;;89.03;44.22;;;;;;;5.24;83.74;101051.81;4968324;28;20061;-80
2023/12/12 05:44:05;;;;;;;84.22;44.45;;;;;;;5.20;83.78;101029.25;4964018;28;20078;-81
2023/12/12 05:46:32;;;;;;;84.45;44.13;;;;;;;5.20;83.67;101030.09;4981944;28;20046;-82
2023/12/12 05:49:07;;;;;;;85.50;43.85;;;;;;;5.39;83.60;101055.31;4973798;28;20141;-81
2023/12/12 05:51:36;;;;;;;81.88;41.80;;;;;;;5.37;83.63;101046.69;4964952;28;20050;-82
2023/12/12 05:54:03;;;;;;;90.80;44.13;;;;;;;5.38;83.37;101033.41;4969264;28;20492;-82
2023/12/12 05:56:31;;;;;;;74.93;41.08;;;;;;;5.41;83.41;101027.09;4967890;28;20050;-81
2023/12/12 05:59:00;;;;;;;82.28;44.05;;;;;;;5.31;83.64;101003.97;4972687;28;20129;-80
2023/12/12 06:01:27;;;;;;;76.90;40.35;;;;;;;4.93;83.67;100946.59;4973902;28;20467;-82
2023/12/12 06:04:01;;;;;;;78.70;44.75;;;;;;;5.29;83.91;101003.22;4979513;28;20060;-81
2023/12/12 06:06:28;;;;;;;83.45;47.40;;;;;;;5.48;83.87;101033.69;4966479;28;20070;-82
2023/12/12 06:09:00;;;;;;;84.90;42.63;;;;;;;5.39;83.91;101013.19;4968231;28;20288;-83
2023/12/12 06:11:28;;;;;;;82.75;43.88;;;;;;;5.50;84.38;101031.81;4983962;28;20073;-82
2023/12/12 06:14:03;;;;;;;90.40;44.63;;;;;;;5.51;84.45;101028.22;4969539;28;20049;-81
2023/12/12 06:16:34;;;;;;;85.70;42.67;;;;;;;5.39;84.51;100998.25;4985284;28;20053;-79
2023/12/12 06:19:04;;;;;;;81.22;48.45;;;;;;;5.52;84.73;101028.16;4972369;28;20152;-80
2023/12/12 06:21:32;;;;;;;89.25;46.22;;;;;;;5.43;84.54;101012.06;4984819;28;20464;-80
2023/12/12 06:24:01;;;;;;;96.63;45.55;;;;;;;5.58;84.82;101024.28;4992315;28;20487;-78
2023/12/12 06:26:32;;;;;;;79.80;42.95;;;;;;;5.49;84.64;100994.13;4978878;28;20049;-80
2023/12/12 06:29:08;;;;;;;90.93;43.97;;;;;;;5.60;84.92;101017.13;4969958;28;20073;-80
2023/12/12 06:31:36;;;;;;;86.15;43.95;;;;;;;5.54;84.76;101009.63;4972387;28;20092;-80
2023/12/12 06:34:03;;;;;;;83.78;43.75;;;;;;;5.74;84.63;101045.28;4981426;28;20050;-81
2023/12/12 06:36:33;;;;;;;87.32;45.42;;;;;;;5.77;84.50;101051.19;4978369;28;20053;-81
2023/12/12 06:39:00;;;;;;;79.32;44.35;;;;;;;5.81;83.73;101043.97;4978862;28;20217;-80
2023/12/12 06:41:27;;;;;;;78.32;45.05;;;;;;;5.78;83.24;101031.81;4985448;28;20053;-79
2023/12/12 06:43:53;;;;;;;85.75;44.40;;;;;;;5.64;82.95;101004.66;4981458;28;20053;-81
2023/12/12 06:46:20;;;;;;;86.47;44.45;;;;;;;5.31;83.08;100961.84;4955324;28;20438;-81
2023/12/12 06:48:47;;;;;;;84.80;44.78;;;;;;;5.13;83.67;100934.03;4973411;28;20077;-80
2023/12/12 06:51:15;;;;;;;85.80;46.17;;;;;;;5.78;83.63;101036.25;4952799;28;20081;-80
2023/12/12 06:53:41;;;;;;;80.22;41.78;;;;;;;5.71;83.20;101024.41;4972941;28;20591;-82
2023/12/12 06:56:09;;;;;;;82.28;43.85;;;;;;;5.73;83.75;101043.59;4972776;28;20049;-80
2023/12/12 06:58:38;;;;;;;76.88;41.47;;;;;;;5.73;83.23;101036.53;4963257;28;20471;-83
2023/12/12 07:01:05;;;;;;;74.80;39.17;;;;;;;5.68;83.23;101020.16;4975046;28;20045;-81
2023/12/12 07:03:32;;;;;;;80.53;39.72;;;;;;;5.72;83.27;101032.19;4978915;28;20400;-79
2023/12/12 07:06:02;;;;;;;81.47;38.95;;;;;;;5.81;83.21;101053.66;4961761;28;20281;-80
2023/12/12 07:08:32;;;;;;;76.95;38.25;;;;;;;5.91;83.36;101071.44;4974567;28;20046;-80
2023/12/12 07:10:59;;;;;;;85.15;41.20;;;;;;;5.94;82.95;101067.78;4978828;28;20284;-80
2023/12/12 07:13:29;;;;;;;79.78;41.33;;;;;;;5.97;83.46;101057.03;4969189;28;20129;-80
2023/12/12 07:15:56;;;;;;;79.45;40.53;;;;;;;5.98;83.00;101062.22;4968308;28;20272;-81
2023/12/12 07:18:24;;;;;;;73.53;39.13;;;;;;;6.02;83.33;101055.00;4990168;28;20842;-81
2023/12/12 07:20:53;;;;;;;90.68;39.90;;;;;;;5.87;83.19;101034.81;4961240;28;20133;-82
2023/12/12 07:23:21;;;;;;;77.93;40.20;;;;;;;5.97;83.52;101057.03;4972753;28;20046;-81
2023/12/12 07:25:48;;;;;;;81.68;39.95;;;;;;;5.81;84.19;101020.25;4980219;28;20108;-83
2023/12/12 07:28:15;;;;;;;84.60;43.90;;;;;;;5.38;84.42;100932.50;4960519;28;20369;-86
2023/12/12 07:30:43;;;;;;;83.30;42.03;;;;;;;5.98;83.95;101032.41;4968040;28;20042;-86
2023/12/12 07:33:11;;;;;;;82.47;40.63;;;;;;;6.08;84.39;101043.22;4958390;28;20050;-83
2023/12/12 07:35:38;;;;;;;84.35;41.50;;;;;;;5.22;84.38;100901.00;4956460;28;20364;-83
2023/12/12 07:38:05;;;;;;;74.97;39.00;;;;;;;5.04;83.75;100879.31;4996386;28;20127;-84
2023/12/12 07:40:32;;;;;;;83.75;38.83;;;;;;;4.99;83.60;100862.97;4960651;28;20050;-82
2023/12/12 07:43:00;;;;;;;90.72;42.33;;;;;;;6.22;83.45;101076.63;4988812;28;20061;-83
2023/12/12 07:45:27;;;;;;;73.47;38.83;;;;;;;4.91;83.31;100856.38;4977350;28;20065;-84
2023/12/12 07:47:54;;;;;;;84.47;39.97;;;;;;;5.76;82.97;100986.28;4979537;28;20050;-82
2023/12/12 07:50:22;;;;;;;75.00;38.15;;;;;;;6.23;83.02;101046.66;4973161;28;20046;-84
2023/12/12 07:52:49;;;;;;;91.75;40.83;;;;;;;5.93;82.79;100992.28;4960950;28;20506;-82
2023/12/12 07:55:19;;;;;;;83.03;40.08;;;;;;;6.26;82.74;101042.03;4956762;28;20212;-82
2023/12/12 07:57:49;;;;;;;89.55;41.70;;;;;;;6.20;82.43;101035.38;4953119;28;20052;-84
2023/12/12 08:00:19;;;;;;;86.88;40.20;;;;;;;6.51;82.24;101067.69;4964727;28;20523;-83
2023/12/12 08:02:46;;;;;;;90.28;41.75;;;;;;;6.53;82.59;101071.09;4961349;28;20054;-85
2023/12/12 08:05:14;;;;;;;88.18;39.75;;;;;;;6.44;82.47;101052.38;4982281;28;20052;-84
2023/12/12 08:07:43;;;;;;;100.07;43.45;;;;;;;6.57;82.64;101072.56;4970157;28;20487;-82
2023/12/12 08:10:10;;;;;;;92.97;43.67;;;;;;;5.84;82.21;100971.78;4972758;28;20539;-84
2023/12/12 08:12:40;;;;;;;85.22;40.30;;;;;;;5.58;82.04;100913.66;4953896;28;20058;-83
2023/12/12 08:15:07;;;;;;;83.68;38.22;;;;;;;5.66;81.93;100942.19;4959262;28;20915;-82
2023/12/12 08:17:35;;;;;;;83.00;41.15;;;;;;;5.74;81.93;100953.91;4976190;28;20073;-85
2023/12/12 08:20:05;;;;;;;79.70;39.65;;;;;;;6.58;81.82;101084.81;4982981;28;20137;-83
2023/12/12 08:22:32;;;;;;;92.80;40.25;;;;;;;5.95;82.48;100988.63;4968033;28;20053;-85
2023/12/12 08:25:00;;;;;;;89.13;41.00;;;;;;;5.56;81.89;100920.84;4976091;28;20046;-85
2023/12/12 08:27:28;;;;;;;94.82;41.22;;;;;;;6.52;82.01;101069.38;4980419;28;20310;-83
2023/12/12 08:30:05;;;;;;;89.53;41.80;;;;;;;5.51;82.75;100892.16;4970449;28;20062;-84
2023/12/12 08:32:32;;;;;;;89.00;40.42;;;;;;;5.89;83.00;100959.16;4983008;28;20060;-84
2023/12/12 08:34:59;;;;;;;85.45;41.15;;;;;;;6.88;82.71;101104.88;4975042;28;20387;-84
2023/12/12 08:37:30;;;;;;;88.28;40.63;;;;;;;6.06;82.23;100963.38;4972034;28;20491;-83
2023/12/12 15:23:07;;;;;;;129.77;65.38;;;;;;;8.63;82.83;100809.63;4920051;28;20579;-81
2023/12/12 15:25:37;;;;;;;125.45;65.43;;;;;;;8.31;82.41;100752.06;4923245;28;20054;-79
2023/12/12 15:28:11;;;;;;;127.57;63.70;;;;;;;8.82;81.63;100829.38;4952947;28;20417;-80
2023/12/12 15:30:59;;;;;;;141.25;63.08;;;;;;;8.83;81.82;100815.19;4913062;28;20062;-82
2023/12/12 15:33:27;;;;;;;138.40;64.22;;;;;;;8.48;81.68;100739.38;4943190;28;20105;-81
2023/12/12 15:36:04;;;;;;;140.93;67.07;;;;;;;9.00;80.94;100812.03;4960253;28;20117;-80
2023/12/12 15:38:31;;;;;;;147.90;70.85;;;;;;;9.02;80.67;100814.59;4971256;28;20054;-81
2023/12/12 15:40:57;;;;;;;131.60;65.05;;;;;;;8.90;80.19;100792.56;4971796;28;20445;-80
2023/12/12 15:43:24;;;;;;;145.13;66.05;;;;;;;8.82;80.11;100776.44;4950936;28;20891;-80
2023/12/12 15:45:52;;;;;;;145.90;68.32;;;;;;;9.16;80.06;100807.22;4928639;28;20051;-81
2023/12/12 15:48:19;;;;;;;151.05;68.78;;;;;;;9.17;80.02;100805.41;4964281;28;20743;-80
2023/12/12 15:50:46;;;;;;;155.77;70.53;;;;;;;9.24;79.14;100813.72;4949332;28;20508;-80
2023/12/12 15:53:13;;;;;;;143.70;67.68;;;;;;;9.22;79.21;100795.28;4975348;28;20502;-81
2023/12/12 15:55:40;;;;;;;142.10;68.28;;;;;;;9.22;79.10;100773.25;4951649;28;20407;-80
2023/12/12 16:01:59;;;;;;;142.68;71.70;;;;;;;9.18;79.77;100760.28;4965124;28;20046;-81
2023/12/12 16:04:26;;;;;;;138.77;66.43;;;;;;;9.29;79.13;100772.63;4959924;28;20290;-80
2023/12/12 16:06:54;;;;;;;142.02;67.60;;;;;;;9.10;78.63;100743.28;4955502;28;20047;-81
2023/12/12 16:09:24;;;;;;;148.40;70.38;;;;;;;9.32;78.21;100764.47;4958223;28;20055;-79
2023/12/12 16:11:52;;;;;;;140.55;67.50;;;;;;;9.32;78.90;100756.50;4932076;28;20062;-80
2023/12/12 16:14:22;;;;;;;148.13;68.03;;;;;;;9.32;79.11;100758.28;4923982;28;20105;-80
2023/12/12 16:16:49;;;;;;;156.20;68.85;;;;;;;9.31;79.29;100749.50;4936845;28;20054;-80
2023/12/12 16:19:17;;;;;;;147.48;67.97;;;;;;;8.77;78.61;100662.97;4949928;28;20308;-79
2023/12/12 16:21:47;;;;;;;146.07;67.20;;;;;;;9.31;78.49;100751.31;4958632;28;20117;-80
2023/12/12 16:24:15;;;;;;;140.63;65.10;;;;;;;9.02;79.86;100701.56;4966210;28;20546;-80
2023/12/12 16:26:42;;;;;;;142.27;65.95;;;;;;;9.22;80.05;100737.00;4945213;28;20051;-79
2023/12/12 16:29:08;;;;;;;132.85;65.13;;;;;;;9.25;79.96;100742.09;4882332;28;20060;-79
2023/12/12 16:31:40;;;;;;;133.18;66.05;;;;;;;9.27;80.29;100739.28;4887266;29;20039;-82
2023/12/12 16:34:08;;;;;;;144.50;65.78;;;;;;;9.27;79.94;100726.03;4940072;28;20051;-77
2023/12/12 16:36:35;;;;;;;141.85;67.13;;;;;;;9.19;79.51;100714.25;4897007;28;20055;-83
2023/12/12 16:39:03;;;;;;;121.43;60.55;;;;;;;9.14;80.20;100716.44;4904921;29;20414;-80
2023/12/12 16:41:30;;;;;;;128.23;61.85;;;;;;;9.26;79.76;100727.03;4923687;28;20505;-79
2023/12/12 16:43:57;;;;;;;133.45;63.30;;;;;;;8.88;80.27;100672.69;4940643;28;20052;-82
2023/12/12 16:46:24;;;;;;;130.60;64.40;;;;;;;9.15;80.18;100720.78;4926519;29;20052;-80
2023/12/12 16:48:53;;;;;;;118.47;59.15;;;;;;;9.06;81.00;100721.53;4863333;28;20055;-79
2023/12/12 16:51:24;;;;;;;129.13;60.80;;;;;;;8.14;80.53;100570.06;4912104;29;20406;-82
2023/12/12 16:53:51;;;;;;;130.18;66.03;;;;;;;9.06;80.64;100726.00;4923517;28;20327;-81
2023/12/12 16:56:20;;;;;;;138.43;64.80;;;;;;;9.01;80.99;100715.78;4932470;28;20055;-82
2023/12/12 16:58:47;;;;;;;136.75;66.50;;;;;;;9.05;81.08;100717.19;4919320;29;20079;-80
2023/12/12 17:03:51;;;;;;;133.13;67.80;;;;;;;9.03;81.43;100705.91;4925570;28;20142;-78
2023/12/12 17:06:26;;;;;;;124.22;67.07;;;;;;;9.02;82.02;100708.66;4932099;28;20053;-81
2023/12/12 17:08:59;;;;;;;140.70;69.60;;;;;;;8.89;81.47;100682.34;4913591;28;20133;-81
2023/12/12 17:11:26;;;;;;;142.27;68.80;;;;;;;8.99;82.13;100705.28;4928055;28;20516;-80
2023/12/12 17:13:59;;;;;;;135.57;68.80;;;;;;;8.96;82.16;100692.31;4925095;28;20054;-81
2023/12/12 17:16:26;;;;;;;133.80;68.95;;;;;;;8.74;82.60;100664.06;4939510;28;20074;-80
2023/12/12 17:19:02;;;;;;;137.23;69.60;;;;;;;8.90;82.49;100684.84;4929670;28;20046;-81
2023/12/12 17:21:29;;;;;;;153.43;76.00;;;;;;;8.73;83.05;100657.06;4937982;28;20062;-79
2023/12/12 17:23:56;;;;;;;141.80;73.53;;;;;;;8.91;83.37;100701.59;4893394;28;20557;-80
2023/12/12 17:26:24;;;;;;;139.57;70.85;;;;;;;8.87;82.88;100694.84;4909539;28;21210;-80
2023/12/12 17:28:51;;;;;;;131.75;67.10;;;;;;;8.40;82.66;100609.50;4960112;28;20133;-79
2023/12/12 17:31:18;;;;;;;132.98;64.43;;;;;;;8.77;83.48;100661.16;4954751;28;20141;-78
2023/12/12 17:33:46;;;;;;;128.15;67.22;;;;;;;8.80;83.54;100661.91;4959065;28;20065;-78
2023/12/12 17:36:13;;;;;;;136.07;67.80;;;;;;;8.39;83.62;100590.13;4945054;28;20059;-78
2023/12/12 17:38:42;;;;;;;122.30;65.60;;;;;;;8.72;83.67;100652.75;4960530;28;20141;-81
2023/12/12 17:41:14;;;;;;;131.65;65.13;;;;;;;8.56;84.32;100623.19;4942632;28;20055;-79
2023/12/12 17:43:42;;;;;;;122.45;67.18;;;;;;;8.67;84.37;100641.72;4955679;28;20038;-78
2023/12/12 17:46:09;;;;;;;126.60;67.72;;;;;;;8.58;84.35;100620.44;4960071;28;20136;-78
2023/12/12 17:48:36;;;;;;;120.38;66.55;;;;;;;8.55;84.31;100610.94;4963823;28;20042;-81
2023/12/12 17:51:04;;;;;;;133.45;69.18;;;;;;;8.71;83.99;100637.84;4941123;28;20053;-79
2023/12/12 17:53:31;;;;;;;121.07;65.20;;;;;;;8.57;83.94;100582.56;4981365;28;20217;-79
2023/12/12 17:56:01;;;;;;;128.05;66.90;;;;;;;8.68;83.60;100595.75;4956040;28;20058;-79
2023/12/12 17:58:28;;;;;;;116.72;64.63;;;;;;;8.61;83.52;100599.84;4951643;28;20046;-81
2023/12/12 18:00:55;;;;;;;122.00;65.10;;;;;;;8.69;83.70;100633.63;4942471;28;20071;-81
2023/12/12 18:03:30;;;;;;;123.63;64.53;;;;;;;8.59;83.75;100607.06;4964035;28;20059;-81
2023/12/12 18:05:56;;;;;;;114.90;62.85;;;;;;;8.68;83.85;100621.38;4957717;28;20090;-81
2023/12/12 18:08:25;;;;;;;119.28;66.85;;;;;;;8.61;83.50;100588.41;4943417;28;20049;-80
2023/12/12 18:10:52;;;;;;;119.80;65.38;;;;;;;8.38;83.70;100559.34;4948447;28;20514;-83